createdAt,value
2019-04-10T00:02:39.772Z,23.62
2019-04-10T00:13:04.486Z,30.43
2019-04-10T00:23:28.194Z,26.50
2019-04-10T00:33:51.450Z,23.92
2019-04-10T00:44:15.307Z,25.15
2019-04-10T00:54:39.246Z,22.80
2019-04-10T01:05:02.828Z,24.77
2019-04-10T01:15:26.693Z,25.97
2019-04-10T01:25:50.580Z,27.22
2019-04-10T01:36:13.743Z,25.02
2019-04-10T01:46:36.882Z,24.23
2019-04-10T01:56:59.926Z,24.12
2019-04-10T02:07:23.117Z,29.57
2019-04-10T02:17:47.234Z,24.20
2019-04-10T02:28:10.836Z,25.10
2019-04-10T02:38:50.801Z,24.37
2019-04-10T02:49:00.239Z,24.32
2019-04-10T02:59:24.079Z,28.07
2019-04-10T03:10:00.507Z,26.25
2019-04-10T03:20:12.276Z,25.52
2019-04-10T03:30:36.935Z,22.02
2019-04-10T03:40:59.862Z,24.67
2019-04-10T03:51:22.965Z,24.75
2019-04-10T04:01:45.808Z,26.60
2019-04-10T04:12:10.446Z,23.47
2019-04-10T04:22:34.221Z,25.50
2019-04-10T04:32:58.042Z,24.98
2019-04-10T04:43:23.221Z,30.55
2019-04-10T04:53:46.558Z,26.35
2019-04-10T05:04:09.681Z,28.52
2019-04-10T05:14:32.789Z,28.92
2019-04-10T05:24:56.522Z,31.37
2019-04-10T05:35:19.531Z,31.93
2019-04-10T05:45:42.942Z,26.65
2019-04-10T05:56:07.218Z,31.33
2019-04-10T06:06:30.664Z,34.98
2019-04-10T06:16:55.111Z,35.48
2019-04-10T06:27:18.606Z,35.17
2019-04-10T06:37:42.252Z,30.00
2019-04-10T06:48:06.843Z,32.98
2019-04-10T06:58:31.794Z,33.33
2019-04-10T07:08:57.011Z,27.58
2019-04-10T07:19:21.051Z,31.02
2019-04-10T07:29:44.897Z,27.27
2019-04-10T07:40:08.284Z,28.42
2019-04-10T07:50:30.924Z,28.75
2019-04-10T08:00:53.641Z,25.95
2019-04-10T08:11:17.575Z,24.82
2019-04-10T08:21:42.270Z,21.77
2019-04-10T08:32:05.599Z,20.35
2019-04-10T08:42:29.124Z,20.25
2019-04-10T08:52:52.024Z,16.10
2019-04-10T09:03:14.949Z,20.55
2019-04-10T09:13:39.553Z,16.82
2019-04-10T09:24:03.022Z,10.28
2019-04-10T09:34:26.039Z,13.35
2019-04-10T09:44:49.105Z,13.10
2019-04-10T09:55:12.320Z,9.13
2019-04-10T10:05:36.939Z,12.95
2019-04-10T10:16:00.817Z,14.50
2019-04-10T10:26:24.445Z,11.10
2019-04-10T10:36:50.547Z,10.18
2019-04-10T10:47:13.673Z,8.98
2019-04-10T10:57:37.478Z,8.13
2019-04-10T11:08:01.312Z,8.10
2019-04-10T11:18:24.816Z,7.67
2019-04-10T11:28:49.608Z,7.83
2019-04-10T11:39:21.898Z,10.50
2019-04-10T11:49:42.596Z,10.65
2019-04-10T12:00:06.137Z,10.58
2019-04-10T12:20:53.667Z,8.53
2019-04-10T12:31:17.702Z,9.75
2019-04-10T12:41:41.664Z,8.85
2019-04-10T12:52:05.850Z,7.47
2019-04-10T13:02:30.299Z,7.10
2019-04-10T13:12:53.549Z,6.53
2019-04-10T13:23:17.743Z,7.53
2019-04-10T13:33:40.872Z,7.08
2019-04-10T13:44:04.533Z,12.98
2019-04-10T13:54:28.379Z,12.78
2019-04-10T14:04:51.746Z,6.12
2019-04-10T14:15:16.101Z,6.92
2019-04-10T14:25:53.976Z,7.15
2019-04-10T14:36:17.999Z,10.15
2019-04-10T14:46:42.115Z,7.20
2019-04-10T14:57:06.423Z,7.28
2019-04-10T15:07:30.976Z,6.95
2019-04-10T15:17:54.742Z,6.05
2019-04-10T15:28:18.062Z,5.85
2019-04-10T15:38:42.146Z,5.12
2019-04-10T15:49:05.522Z,6.90
2019-04-10T15:59:28.826Z,4.87
2019-04-10T16:09:55.154Z,6.30
2019-04-10T16:20:23.010Z,5.75
2019-04-10T16:30:46.659Z,5.85
2019-04-10T16:41:10.101Z,6.30
2019-04-10T16:51:34.410Z,4.70
2019-04-10T17:01:57.806Z,5.55
2019-04-10T17:12:21.948Z,5.80
2019-04-10T17:22:48.984Z,7.72
2019-04-10T17:33:11.160Z,5.87
2019-04-10T17:43:35.089Z,5.25
2019-04-10T17:53:59.959Z,6.20
2019-04-10T18:04:24.256Z,6.85
2019-04-10T18:14:49.298Z,7.37
2019-04-10T18:25:13.871Z,9.80
2019-04-10T18:35:37.255Z,7.80
2019-04-10T18:46:08.780Z,8.10
2019-04-10T18:56:25.594Z,9.18
2019-04-10T19:07:00.506Z,6.92
2019-04-10T19:17:24.637Z,9.65
2019-04-10T19:27:48.619Z,10.95
2019-04-10T19:38:12.078Z,10.98
2019-04-10T19:48:35.433Z,12.40
2019-04-10T19:58:58.962Z,9.83
2019-04-10T20:09:22.602Z,8.28
2019-04-10T20:19:46.767Z,9.55
2019-04-10T20:30:11.915Z,7.75
2019-04-10T20:40:36.133Z,10.05
2019-04-10T20:51:00.627Z,8.20
2019-04-10T21:01:24.772Z,6.65
2019-04-10T21:11:59.986Z,9.15
2019-04-10T21:22:13.814Z,8.00
2019-04-10T21:32:58.770Z,5.70
2019-04-10T21:43:22.831Z,7.12
2019-04-10T21:53:47.325Z,8.08
2019-04-10T22:04:10.761Z,7.15
2019-04-10T22:14:33.810Z,6.75
2019-04-10T22:24:57.483Z,6.50
2019-04-10T22:35:20.122Z,8.15
2019-04-10T22:45:44.586Z,6.70
2019-04-10T22:56:08.814Z,8.33
2019-04-10T23:06:33.300Z,7.97
2019-04-10T23:16:56.959Z,6.72
2019-04-10T23:27:19.878Z,7.42
2019-04-10T23:37:44.596Z,8.13
2019-04-10T23:48:08.744Z,10.15
2019-04-10T23:58:32.401Z,6.95
